Qu'Appelle, Canada
Current Conditions -  °F | °C
As of 3:00 AM on Friday 31 Oct 2014 (Local Time) from CYQR Reporting Station
Broken Clouds Broken Clouds  
Wind Chill: 11°   Ceiling: 1500
Heat Index: 25°   Visibility: 15mi
Dew Point: 21°   Wind: 18mph
Humidity: 86%   Direction: 140°SE
Pressure: 30.35"   Gusts: 29mph
Location:  50.53°N, 103.87°W
Report Text: CYQR 310900Z 14016G25KT 15SM BKN015 M04/M06 A3035 RMK SC7 SLP310
Loading
Personal Weather Stations






























Interactive Weather Map
Tropical Storm Tracking
New forecast layout! Learn more

10-Day Weather Forecast

Advertisements
Track Severe Weather on mobile